createdAt,value
2023-05-14T00:03:22.879Z,62.02
2023-05-14T00:08:43.287Z,62.28
2023-05-14T00:14:03.627Z,62.27
2023-05-14T00:19:24.210Z,62.31
2023-05-14T00:24:44.919Z,62.33
2023-05-14T00:30:07.198Z,62.29
2023-05-14T00:35:27.950Z,62.20
2023-05-14T00:40:51.800Z,62.34
2023-05-14T00:46:12.616Z,62.46
2023-05-14T00:51:33.457Z,62.37
2023-05-14T00:56:55.022Z,62.15
2023-05-14T01:02:15.544Z,62.18
2023-05-14T01:07:59.775Z,62.09
2023-05-14T01:14:08.974Z,62.04
2023-05-14T01:19:39.349Z,61.87
2023-05-14T01:24:59.755Z,61.59
2023-05-14T01:30:32.136Z,61.24
2023-05-14T01:35:54.144Z,60.87
2023-05-14T01:41:14.933Z,60.70
2023-05-14T01:46:36.377Z,60.65
2023-05-14T01:51:57.252Z,60.61
2023-05-14T01:57:18.236Z,60.41
2023-05-14T02:02:38.734Z,60.65
2023-05-14T02:08:01.579Z,60.63
2023-05-14T02:13:23.002Z,60.53
2023-05-14T02:18:43.908Z,60.32
2023-05-14T02:24:05.086Z,60.18
2023-05-14T02:29:25.730Z,59.78
2023-05-14T02:34:46.542Z,59.92
2023-05-14T02:40:07.748Z,59.75
2023-05-14T02:45:28.619Z,59.73
2023-05-14T02:50:51.421Z,59.65
2023-05-14T02:56:11.967Z,59.91
2023-05-14T03:01:32.706Z,60.38
2023-05-14T03:06:53.727Z,60.42
2023-05-14T03:12:14.466Z,60.48
2023-05-14T03:17:34.992Z,60.29
2023-05-14T03:22:56.602Z,60.54
2023-05-14T03:28:20.387Z,60.67
2023-05-14T03:33:41.450Z,60.54
2023-05-14T03:39:02.847Z,60.53
2023-05-14T03:44:23.873Z,60.69
2023-05-14T03:49:44.566Z,60.49
2023-05-14T03:55:07.493Z,60.55
2023-05-14T04:00:28.585Z,60.50
2023-05-14T04:05:49.076Z,60.42
2023-05-14T04:11:09.748Z,60.15
2023-05-14T04:16:30.631Z,60.20
2023-05-14T04:21:51.179Z,60.04
2023-05-14T04:27:11.937Z,59.73
2023-05-14T04:32:32.370Z,59.77
2023-05-14T04:37:53.174Z,59.48
2023-05-14T04:43:13.525Z,59.46
2023-05-14T04:48:34.281Z,59.12
2023-05-14T04:53:55.127Z,59.32
2023-05-14T04:59:16.396Z,59.06
2023-05-14T05:04:36.759Z,58.99
2023-05-14T05:09:57.618Z,58.99
2023-05-14T05:15:18.144Z,59.18
2023-05-14T05:20:38.989Z,59.15
2023-05-14T05:25:59.900Z,59.00
2023-05-14T05:31:20.720Z,59.09
2023-05-14T05:36:41.474Z,59.12
2023-05-14T05:42:02.630Z,58.98
2023-05-14T05:47:23.170Z,58.86
2023-05-14T05:52:44.152Z,58.94
2023-05-14T05:58:04.954Z,58.80
2023-05-14T06:03:26.048Z,58.56
2023-05-14T06:08:47.011Z,58.71
2023-05-14T06:14:07.506Z,58.51
2023-05-14T06:19:28.524Z,58.78
2023-05-14T06:24:49.045Z,58.47
2023-05-14T06:30:11.316Z,58.30
2023-05-14T06:35:32.536Z,58.19
2023-05-14T06:40:53.203Z,58.10
2023-05-14T06:46:13.797Z,57.90
2023-05-14T06:51:34.589Z,57.89
2023-05-14T06:56:55.150Z,57.76
2023-05-14T07:02:15.609Z,58.00
2023-05-14T07:07:35.946Z,57.66
2023-05-14T07:12:56.656Z,57.54
2023-05-14T07:18:17.401Z,57.70
2023-05-14T07:23:40.778Z,57.81
2023-05-14T07:29:01.080Z,57.82
2023-05-14T07:34:21.440Z,57.77
2023-05-14T07:39:42.197Z,57.17
2023-05-14T07:45:02.620Z,56.88
2023-05-14T07:50:23.643Z,56.52
2023-05-14T07:55:45.648Z,56.32
2023-05-14T08:01:09.139Z,55.48
2023-05-14T08:06:31.576Z,55.70
2023-05-14T08:11:52.149Z,55.26
2023-05-14T08:17:13.097Z,54.97
2023-05-14T08:22:33.896Z,54.71
2023-05-14T08:27:54.735Z,54.73
2023-05-14T08:33:15.069Z,55.01
2023-05-14T08:38:35.743Z,55.01
2023-05-14T08:44:11.552Z,54.93
2023-05-14T08:49:40.926Z,54.70
2023-05-14T08:55:05.203Z,53.95
2023-05-14T09:00:26.578Z,53.83
2023-05-14T09:05:49.219Z,52.93
2023-05-14T09:11:10.027Z,52.40
2023-05-14T09:16:30.882Z,51.37
2023-05-14T09:21:51.660Z,51.15
2023-05-14T09:27:20.149Z,51.16
2023-05-14T09:32:44.181Z,50.56
2023-05-14T09:38:05.029Z,50.41
2023-05-14T09:43:26.100Z,50.36
2023-05-14T09:48:46.674Z,49.99
2023-05-14T09:54:08.259Z,49.71
2023-05-14T09:59:28.870Z,48.99
2023-05-14T10:05:00.258Z,49.18
2023-05-14T10:10:23.777Z,48.56
2023-05-14T10:15:52.012Z,49.06
2023-05-14T10:21:15.204Z,47.85
2023-05-14T10:26:39.331Z,47.63
2023-05-14T10:32:06.290Z,48.18
2023-05-14T10:37:27.000Z,48.06
2023-05-14T10:42:48.475Z,46.99
2023-05-14T10:48:09.424Z,45.32
2023-05-14T10:53:34.868Z,44.77
2023-05-14T10:58:58.377Z,44.57
2023-05-14T11:04:19.553Z,44.11
2023-05-14T11:09:40.626Z,44.55
2023-05-14T11:15:05.738Z,44.35
2023-05-14T11:20:26.396Z,43.07
2023-05-14T11:25:47.165Z,41.90
2023-05-14T11:31:07.694Z,41.48
2023-05-14T11:36:28.224Z,41.55
2023-05-14T11:41:48.846Z,42.10
2023-05-14T11:47:09.967Z,40.60
2023-05-14T11:52:30.315Z,40.66
2023-05-14T11:57:51.306Z,39.61
2023-05-14T12:03:12.348Z,39.55
2023-05-14T12:08:32.951Z,38.95
2023-05-14T12:13:53.343Z,38.38
2023-05-14T12:19:19.160Z,37.56
2023-05-14T12:24:40.247Z,36.51
2023-05-14T12:30:20.780Z,36.27
2023-05-14T12:35:46.923Z,36.15
2023-05-14T12:47:06.690Z,35.50
2023-05-14T12:52:37.731Z,35.43
2023-05-14T12:57:59.018Z,34.69
2023-05-14T13:03:19.556Z,34.41
2023-05-14T13:08:42.111Z,34.42
2023-05-14T13:14:03.865Z,33.45
2023-05-14T13:19:24.338Z,33.52
2023-05-14T13:24:44.758Z,33.58
2023-05-14T13:30:05.749Z,32.89
2023-05-14T13:35:26.418Z,32.18
2023-05-14T13:40:47.218Z,31.88
2023-05-14T13:46:07.993Z,31.95
2023-05-14T13:51:28.344Z,32.47
2023-05-14T13:56:48.956Z,33.07
2023-05-14T14:02:09.645Z,33.65
2023-05-14T14:07:29.959Z,34.64
2023-05-14T14:12:50.922Z,35.65
2023-05-14T14:18:11.482Z,35.51
2023-05-14T14:23:32.339Z,34.88
2023-05-14T14:28:52.685Z,35.05
2023-05-14T14:34:13.369Z,34.96
2023-05-14T14:39:34.293Z,35.38
2023-05-14T14:44:55.029Z,35.86
2023-05-14T14:50:15.675Z,36.10
2023-05-14T14:55:36.171Z,35.89
2023-05-14T15:00:57.601Z,36.32
2023-05-14T15:06:18.077Z,35.14
2023-05-14T15:11:38.635Z,34.90
2023-05-14T15:16:58.962Z,35.40
2023-05-14T15:22:19.556Z,35.53
2023-05-14T15:27:40.628Z,35.28
2023-05-14T15:33:01.383Z,34.89
2023-05-14T15:38:21.932Z,34.69
2023-05-14T15:43:42.600Z,35.18
2023-05-14T15:49:03.039Z,35.51
2023-05-14T15:54:23.608Z,35.57
2023-05-14T15:59:47.038Z,35.25
2023-05-14T16:05:08.509Z,34.57
2023-05-14T16:10:29.030Z,34.87
2023-05-14T16:15:49.992Z,34.72
2023-05-14T16:21:10.331Z,34.00
2023-05-14T16:26:31.293Z,34.08
2023-05-14T16:31:52.602Z,34.67
2023-05-14T16:37:14.988Z,34.89
2023-05-14T16:42:35.871Z,35.33
2023-05-14T16:47:56.758Z,35.32
2023-05-14T16:53:17.411Z,36.49
2023-05-14T16:58:38.063Z,37.61
2023-05-14T17:03:58.464Z,38.09
2023-05-14T17:09:19.145Z,38.34
2023-05-14T17:14:39.826Z,39.08
2023-05-14T17:20:00.929Z,39.35
2023-05-14T17:25:23.769Z,39.76
2023-05-14T17:30:44.541Z,39.80
2023-05-14T17:36:08.343Z,40.32
2023-05-14T17:41:28.880Z,40.69
2023-05-14T17:46:49.921Z,40.96
2023-05-14T17:52:10.184Z,41.29
2023-05-14T17:57:30.764Z,41.53
2023-05-14T18:02:51.519Z,42.08
2023-05-14T18:08:12.075Z,42.04
2023-05-14T18:13:32.808Z,42.30
2023-05-14T18:18:53.503Z,42.33
2023-05-14T18:24:14.254Z,42.04
2023-05-14T18:29:34.647Z,42.22
2023-05-14T18:34:54.869Z,42.22
2023-05-14T18:40:17.060Z,42.18
2023-05-14T18:45:40.044Z,42.41
2023-05-14T18:51:01.049Z,42.93
2023-05-14T18:56:21.534Z,42.89
2023-05-14T19:01:42.336Z,43.64
2023-05-14T19:07:02.964Z,43.99
2023-05-14T19:12:23.458Z,44.18
2023-05-14T19:17:44.836Z,44.40
2023-05-14T19:23:05.634Z,45.45
2023-05-14T19:28:25.985Z,46.19
2023-05-14T19:33:46.822Z,47.14
2023-05-14T19:39:07.479Z,47.74
2023-05-14T19:44:28.111Z,47.99
2023-05-14T19:49:48.485Z,48.38
2023-05-14T19:55:09.262Z,49.11
2023-05-14T20:00:29.700Z,49.46
2023-05-14T20:05:50.414Z,50.45
2023-05-14T20:11:11.366Z,51.24
2023-05-14T20:16:32.155Z,51.74
2023-05-14T20:21:52.716Z,52.09
2023-05-14T20:27:13.317Z,52.68
2023-05-14T20:32:34.146Z,53.12
2023-05-14T20:37:54.815Z,53.33
2023-05-14T20:43:16.425Z,53.43
2023-05-14T20:48:36.793Z,53.94
2023-05-14T20:53:57.513Z,54.29
2023-05-14T20:59:17.925Z,54.48
2023-05-14T21:04:38.863Z,54.56
2023-05-14T21:09:59.471Z,55.08
2023-05-14T21:15:20.116Z,55.28
2023-05-14T21:20:40.914Z,55.12
2023-05-14T21:26:01.392Z,55.61
2023-05-14T21:31:11.894Z,55.68
2023-05-14T21:36:32.731Z,55.89
2023-05-14T21:41:53.025Z,56.00
2023-05-14T21:47:13.660Z,56.62
2023-05-14T21:52:34.033Z,56.71
2023-05-14T21:57:54.927Z,57.04
2023-05-14T22:03:16.000Z,57.31
2023-05-14T22:08:36.938Z,57.55
2023-05-14T22:13:57.484Z,57.83
2023-05-14T22:19:18.300Z,57.73
2023-05-14T22:24:38.511Z,58.25
2023-05-14T22:29:59.454Z,58.40
2023-05-14T22:35:20.241Z,58.49
2023-05-14T22:40:40.861Z,58.80
2023-05-14T22:46:01.446Z,58.77
2023-05-14T22:51:21.978Z,59.16
2023-05-14T22:56:42.731Z,59.32
2023-05-14T23:02:03.104Z,59.49
2023-05-14T23:07:23.888Z,59.42
2023-05-14T23:12:44.665Z,59.79
2023-05-14T23:18:05.752Z,59.95
2023-05-14T23:23:26.660Z,60.17
2023-05-14T23:28:47.460Z,60.26
2023-05-14T23:34:07.689Z,60.32
2023-05-14T23:39:28.221Z,60.63
2023-05-14T23:44:49.079Z,60.72
2023-05-14T23:50:09.818Z,60.97
2023-05-14T23:55:30.221Z,61.26
